sensor_id;sensor_type;location;lat;lon;timestamp;pressure;altitude;pressure_sealevel;temperature;humidity
54042;BME280;41156;51.508;5.406;2024-01-10T00:01:21;102968.91;;;-5.48;83.04
54042;BME280;41156;51.508;5.406;2024-01-10T00:04:26;102966.38;;;-5.51;83.30
54042;BME280;41156;51.508;5.406;2024-01-10T00:07:26;102960.38;;;-5.55;84.46
54042;BME280;41156;51.508;5.406;2024-01-10T00:10:27;102965.00;;;-5.62;84.10
54042;BME280;41156;51.508;5.406;2024-01-10T00:13:27;102958.88;;;-5.62;84.28
54042;BME280;41156;51.508;5.406;2024-01-10T00:16:28;102960.66;;;-5.63;84.14
54042;BME280;41156;51.508;5.406;2024-01-10T00:19:28;102953.69;;;-5.64;84.37
54042;BME280;41156;51.508;5.406;2024-01-10T00:22:29;102953.69;;;-5.64;83.87
54042;BME280;41156;51.508;5.406;2024-01-10T00:25:29;102947.59;;;-5.66;84.81
54042;BME280;41156;51.508;5.406;2024-01-10T00:28:29;102939.75;;;-5.67;85.02
54042;BME280;41156;51.508;5.406;2024-01-10T00:31:29;102943.41;;;-5.71;84.33
54042;BME280;41156;51.508;5.406;2024-01-10T00:34:30;102941.78;;;-5.74;84.81
54042;BME280;41156;51.508;5.406;2024-01-10T00:37:30;102943.59;;;-5.76;85.33
54042;BME280;41156;51.508;5.406;2024-01-10T00:40:30;102943.72;;;-5.79;85.51
54042;BME280;41156;51.508;5.406;2024-01-10T00:43:31;102942.97;;;-5.83;86.00
54042;BME280;41156;51.508;5.406;2024-01-10T00:46:32;102946.50;;;-5.84;85.68
54042;BME280;41156;51.508;5.406;2024-01-10T00:49:32;102943.03;;;-5.84;85.90
54042;BME280;41156;51.508;5.406;2024-01-10T00:52:32;102946.56;;;-5.85;85.77
54042;BME280;41156;51.508;5.406;2024-01-10T00:55:32;102943.88;;;-5.84;85.65
54042;BME280;41156;51.508;5.406;2024-01-10T00:58:33;102936.03;;;-5.85;85.89
54042;BME280;41156;51.508;5.406;2024-01-10T01:01:33;102935.25;;;-5.87;86.40
54042;BME280;41156;51.508;5.406;2024-01-10T01:04:33;102937.06;;;-5.89;86.24
54042;BME280;41156;51.508;5.406;2024-01-10T01:07:34;102937.97;;;-5.90;87.19
54042;BME280;41156;51.508;5.406;2024-01-10T01:10:34;102932.75;;;-5.92;86.13
54042;BME280;41156;51.508;5.406;2024-01-10T01:13:35;102939.81;;;-5.92;86.25
54042;BME280;41156;51.508;5.406;2024-01-10T01:16:35;102927.69;;;-5.97;86.28
54042;BME280;41156;51.508;5.406;2024-01-10T01:19:35;102935.50;;;-5.95;86.17
54042;BME280;41156;51.508;5.406;2024-01-10T01:22:36;102926.72;;;-5.94;86.38
54042;BME280;41156;51.508;5.406;2024-01-10T01:25:36;102924.91;;;-5.93;86.59
54042;BME280;41156;51.508;5.406;2024-01-10T01:28:36;102931.09;;;-5.95;86.82
54042;BME280;41156;51.508;5.406;2024-01-10T01:31:37;102927.81;;;-6.00;87.08
54042;BME280;41156;51.508;5.406;2024-01-10T01:34:38;102922.59;;;-6.01;86.69
54042;BME280;41156;51.508;5.406;2024-01-10T01:37:38;102923.47;;;-6.01;86.91
54042;BME280;41156;51.508;5.406;2024-01-10T01:40:38;102934.97;;;-6.03;87.24
54042;BME280;41156;51.508;5.406;2024-01-10T01:43:39;102921.84;;;-6.05;87.69
54042;BME280;41156;51.508;5.406;2024-01-10T01:46:39;102929.84;;;-6.08;88.29
54042;BME280;41156;51.508;5.406;2024-01-10T01:49:42;102926.41;;;-6.10;88.28
54042;BME280;41156;51.508;5.406;2024-01-10T01:52:43;102921.22;;;-6.11;88.20
54042;BME280;41156;51.508;5.406;2024-01-10T01:55:45;102929.06;;;-6.10;88.86
54042;BME280;41156;51.508;5.406;2024-01-10T01:58:46;102919.31;;;-6.08;88.71
54042;BME280;41156;51.508;5.406;2024-01-10T02:01:48;102920.19;;;-6.07;89.14
54042;BME280;41156;51.508;5.406;2024-01-10T02:04:50;102923.75;;;-6.08;88.70
54042;BME280;41156;51.508;5.406;2024-01-10T02:07:50;102914.16;;;-6.09;89.35
54042;BME280;41156;51.508;5.406;2024-01-10T02:10:51;102910.69;;;-6.11;89.54
54042;BME280;41156;51.508;5.406;2024-01-10T02:13:52;102915.16;;;-6.14;89.16
54042;BME280;41156;51.508;5.406;2024-01-10T02:16:54;102922.19;;;-6.14;88.73
54042;BME280;41156;51.508;5.406;2024-01-10T02:20:11;102909.03;;;-6.14;90.10
54042;BME280;41156;51.508;5.406;2024-01-10T02:23:12;102903.81;;;-6.16;89.12
54042;BME280;41156;51.508;5.406;2024-01-10T02:26:13;102904.69;;;-6.15;89.53
54042;BME280;41156;51.508;5.406;2024-01-10T02:29:14;102907.25;;;-6.14;89.72
54042;BME280;41156;51.508;5.406;2024-01-10T02:32:14;102900.25;;;-6.15;88.91
54042;BME280;41156;51.508;5.406;2024-01-10T02:35:14;102905.53;;;-6.15;89.52
54042;BME280;41156;51.508;5.406;2024-01-10T02:38:15;102906.41;;;-6.14;89.53
54042;BME280;41156;51.508;5.406;2024-01-10T02:41:15;102914.25;;;-6.12;89.60
54042;BME280;41156;51.508;5.406;2024-01-10T02:44:15;102899.41;;;-6.15;90.91
54042;BME280;41156;51.508;5.406;2024-01-10T02:47:16;102893.25;;;-6.14;90.77
54042;BME280;41156;51.508;5.406;2024-01-10T02:50:16;102896.78;;;-6.15;90.79
54042;BME280;41156;51.508;5.406;2024-01-10T02:53:17;102882.78;;;-6.16;90.99
54042;BME280;41156;51.508;5.406;2024-01-10T02:56:17;102884.53;;;-6.16;90.58
54042;BME280;41156;51.508;5.406;2024-01-10T02:59:17;102883.63;;;-6.15;90.60
54042;BME280;41156;51.508;5.406;2024-01-10T03:02:18;102884.41;;;-6.13;90.54
54042;BME280;41156;51.508;5.406;2024-01-10T03:05:18;102888.84;;;-6.14;90.36
54042;BME280;41156;51.508;5.406;2024-01-10T03:08:18;102890.50;;;-6.11;90.86
54042;BME280;41156;51.508;5.406;2024-01-10T03:11:19;102881.78;;;-6.13;90.56
54042;BME280;41156;51.508;5.406;2024-01-10T03:14:19;102880.09;;;-6.14;90.44
54042;BME280;41156;51.508;5.406;2024-01-10T03:17:19;102872.25;;;-6.16;89.93
54042;BME280;41156;51.508;5.406;2024-01-10T03:20:19;102864.28;;;-6.14;90.37
54042;BME280;41156;51.508;5.406;2024-01-10T03:23:20;102876.63;;;-6.16;90.39
54042;BME280;41156;51.508;5.406;2024-01-10T03:26:20;102866.97;;;-6.16;90.96
54042;BME280;41156;51.508;5.406;2024-01-10T03:29:20;102860.00;;;-6.17;90.89
54042;BME280;41156;51.508;5.406;2024-01-10T03:32:21;102866.25;;;-6.19;91.76
54042;BME280;41156;51.508;5.406;2024-01-10T03:35:21;102866.25;;;-6.19;91.00
54042;BME280;41156;51.508;5.406;2024-01-10T03:38:21;102863.63;;;-6.19;91.99
54042;BME280;41156;51.508;5.406;2024-01-10T03:41:22;102860.94;;;-6.18;91.02
54042;BME280;41156;51.508;5.406;2024-01-10T03:44:22;102853.88;;;-6.17;91.89
54042;BME280;41156;51.508;5.406;2024-01-10T03:47:22;102852.25;;;-6.21;91.20
54042;BME280;41156;51.508;5.406;2024-01-10T03:50:22;102850.56;;;-6.22;91.47
54042;BME280;41156;51.508;5.406;2024-01-10T03:53:23;102845.28;;;-6.22;91.32
54042;BME280;41156;51.508;5.406;2024-01-10T03:56:23;102839.16;;;-6.23;91.91
54042;BME280;41156;51.508;5.406;2024-01-10T03:59:23;102849.75;;;-6.24;91.35
54042;BME280;41156;51.508;5.406;2024-01-10T04:02:24;102838.31;;;-6.23;91.53
54042;BME280;41156;51.508;5.406;2024-01-10T04:05:24;102841.78;;;-6.23;91.74
54042;BME280;41156;51.508;5.406;2024-01-10T04:08:25;102833.97;;;-6.24;91.77
54042;BME280;41156;51.508;5.406;2024-01-10T04:11:25;102840.94;;;-6.23;91.50
54042;BME280;41156;51.508;5.406;2024-01-10T04:14:25;102829.56;;;-6.24;91.56
54042;BME280;41156;51.508;5.406;2024-01-10T04:17:26;102826.97;;;-6.25;91.50
54042;BME280;41156;51.508;5.406;2024-01-10T04:20:26;102822.63;;;-6.26;92.14
54042;BME280;41156;51.508;5.406;2024-01-10T04:23:26;102828.88;;;-6.29;91.70
54042;BME280;41156;51.508;5.406;2024-01-10T04:26:26;102835.00;;;-6.28;92.22
54042;BME280;41156;51.508;5.406;2024-01-10T04:29:27;102838.53;;;-6.29;92.04
54042;BME280;41156;51.508;5.406;2024-01-10T04:32:27;102836.81;;;-6.30;91.98
54042;BME280;41156;51.508;5.406;2024-01-10T04:35:28;102826.41;;;-6.34;91.88
54042;BME280;41156;51.508;5.406;2024-01-10T04:38:28;102833.50;;;-6.36;92.13
54042;BME280;41156;51.508;5.406;2024-01-10T04:41:28;102830.00;;;-6.36;92.56
54042;BME280;41156;51.508;5.406;2024-01-10T04:44:29;102829.03;;;-6.34;91.91
54042;BME280;41156;51.508;5.406;2024-01-10T04:47:29;102829.03;;;-6.34;92.25
54042;BME280;41156;51.508;5.406;2024-01-10T04:50:30;102821.16;;;-6.34;92.32
54042;BME280;41156;51.508;5.406;2024-01-10T04:53:30;102830.94;;;-6.37;92.15
54042;BME280;41156;51.508;5.406;2024-01-10T04:56:30;102825.66;;;-6.37;93.15
54042;BME280;41156;51.508;5.406;2024-01-10T04:59:31;102820.41;;;-6.37;92.58
54042;BME280;41156;51.508;5.406;2024-01-10T05:02:31;102824.81;;;-6.38;92.47
54042;BME280;41156;51.508;5.406;2024-01-10T05:05:31;102821.25;;;-6.37;92.65
54042;BME280;41156;51.508;5.406;2024-01-10T05:08:31;102823.78;;;-6.34;93.24
54042;BME280;41156;51.508;5.406;2024-01-10T05:11:32;102822.88;;;-6.33;92.65
54042;BME280;41156;51.508;5.406;2024-01-10T05:14:34;102815.09;;;-6.36;92.27
54042;BME280;41156;51.508;5.406;2024-01-10T05:17:35;102818.50;;;-6.34;93.15
54042;BME280;41156;51.508;5.406;2024-01-10T05:20:35;102813.25;;;-6.34;93.06
54042;BME280;41156;51.508;5.406;2024-01-10T05:23:36;102820.28;;;-6.34;92.85
54042;BME280;41156;51.508;5.406;2024-01-10T05:26:38;102810.72;;;-6.37;93.96
54042;BME280;41156;51.508;5.406;2024-01-10T05:29:39;102821.25;;;-6.37;93.62
54042;BME280;41156;51.508;5.406;2024-01-10T05:32:39;102817.78;;;-6.37;93.20
54042;BME280;41156;51.508;5.406;2024-01-10T05:35:39;102806.41;;;-6.38;92.94
54042;BME280;41156;51.508;5.406;2024-01-10T05:38:39;102825.72;;;-6.39;93.17
54042;BME280;41156;51.508;5.406;2024-01-10T05:41:40;102824.88;;;-6.39;93.90
54042;BME280;41156;51.508;5.406;2024-01-10T05:44:40;102816.03;;;-6.38;93.59
54042;BME280;41156;51.508;5.406;2024-01-10T05:47:40;102813.47;;;-6.40;93.22
54042;BME280;41156;51.508;5.406;2024-01-10T05:50:41;102818.78;;;-6.41;93.52
54042;BME280;41156;51.508;5.406;2024-01-10T05:53:41;102828.47;;;-6.42;93.72
54042;BME280;41156;51.508;5.406;2024-01-10T05:56:41;102824.09;;;-6.43;94.07
54042;BME280;41156;51.508;5.406;2024-01-10T05:59:42;102816.22;;;-6.43;93.91
54042;BME280;41156;51.508;5.406;2024-01-10T06:02:42;102815.47;;;-6.46;94.35
54042;BME280;41156;51.508;5.406;2024-01-10T06:05:43;102813.75;;;-6.47;93.94
54042;BME280;41156;51.508;5.406;2024-01-10T06:08:43;102819.94;;;-6.48;93.74
54042;BME280;41156;51.508;5.406;2024-01-10T06:11:43;102812.16;;;-6.52;94.02
54042;BME280;41156;51.508;5.406;2024-01-10T06:14:44;102809.56;;;-6.53;94.56
54042;BME280;41156;51.508;5.406;2024-01-10T06:17:44;102814.94;;;-6.56;94.52
54042;BME280;41156;51.508;5.406;2024-01-10T06:20:44;102810.59;;;-6.57;95.06
54042;BME280;41156;51.508;5.406;2024-01-10T06:23:44;102803.66;;;-6.60;95.12
54042;BME280;41156;51.508;5.406;2024-01-10T06:26:45;102801.16;;;-6.63;95.92
54042;BME280;41156;51.508;5.406;2024-01-10T06:29:45;102804.81;;;-6.67;95.56
54042;BME280;41156;51.508;5.406;2024-01-10T06:32:45;102803.03;;;-6.66;95.63
54042;BME280;41156;51.508;5.406;2024-01-10T06:35:46;102809.22;;;-6.67;95.14
54042;BME280;41156;51.508;5.406;2024-01-10T06:38:46;102817.06;;;-6.66;95.73
54042;BME280;41156;51.508;5.406;2024-01-10T06:41:47;102815.38;;;-6.68;95.61
54042;BME280;41156;51.508;5.406;2024-01-10T06:44:47;102814.53;;;-6.69;95.36
54042;BME280;41156;51.508;5.406;2024-01-10T06:47:48;102811.84;;;-6.67;95.60
54042;BME280;41156;51.508;5.406;2024-01-10T06:50:48;102811.91;;;-6.69;95.77
54042;BME280;41156;51.508;5.406;2024-01-10T06:53:48;102816.41;;;-6.73;95.32
54042;BME280;41156;51.508;5.406;2024-01-10T06:56:50;102818.13;;;-6.72;96.21
54042;BME280;41156;51.508;5.406;2024-01-10T06:59:50;102819.03;;;-6.73;96.56
54042;BME280;41156;51.508;5.406;2024-01-10T07:02:50;102809.47;;;-6.75;96.06
54042;BME280;41156;51.508;5.406;2024-01-10T07:05:50;102816.41;;;-6.73;96.59
54042;BME280;41156;51.508;5.406;2024-01-10T07:08:51;102823.44;;;-6.73;96.66
54042;BME280;41156;51.508;5.406;2024-01-10T07:11:51;102822.56;;;-6.74;96.58
54042;BME280;41156;51.508;5.406;2024-01-10T07:14:52;102828.84;;;-6.78;96.28
54042;BME280;41156;51.508;5.406;2024-01-10T07:17:53;102833.19;;;-6.77;96.40
54042;BME280;41156;51.508;5.406;2024-01-10T07:20:53;102818.31;;;-6.78;96.96
54042;BME280;41156;51.508;5.406;2024-01-10T07:23:53;102817.47;;;-6.78;96.31
54042;BME280;41156;51.508;5.406;2024-01-10T07:26:54;102813.19;;;-6.81;97.08
54042;BME280;41156;51.508;5.406;2024-01-10T07:29:54;102808.78;;;-6.80;97.69
54042;BME280;41156;51.508;5.406;2024-01-10T07:32:54;102807.06;;;-6.81;97.92
54042;BME280;41156;51.508;5.406;2024-01-10T07:35:54;102803.53;;;-6.80;98.41
54042;BME280;41156;51.508;5.406;2024-01-10T07:38:56;102807.00;;;-6.80;99.13
54042;BME280;41156;51.508;5.406;2024-01-10T07:41:57;102805.19;;;-6.78;98.13
54042;BME280;41156;51.508;5.406;2024-01-10T07:44:57;102796.38;;;-6.77;98.57
54042;BME280;41156;51.508;5.406;2024-01-10T07:47:58;102802.34;;;-6.72;98.36
54042;BME280;41156;51.508;5.406;2024-01-10T07:50:58;102804.06;;;-6.71;98.72
54042;BME280;41156;51.508;5.406;2024-01-10T07:53:58;102793.56;;;-6.71;97.40
54042;BME280;41156;51.508;5.406;2024-01-10T07:57:00;102799.59;;;-6.68;97.78
54042;BME280;41156;51.508;5.406;2024-01-10T08:00:00;102796.03;;;-6.66;97.99
54042;BME280;41156;51.508;5.406;2024-01-10T08:03:02;102806.41;;;-6.63;98.50
54042;BME280;41156;51.508;5.406;2024-01-10T08:06:03;102812.44;;;-6.59;98.16
54042;BME280;41156;51.508;5.406;2024-01-10T08:09:03;102815.88;;;-6.57;97.82
54042;BME280;41156;51.508;5.406;2024-01-10T08:12:04;102817.47;;;-6.53;97.82
54042;BME280;41156;51.508;5.406;2024-01-10T08:15:05;102817.47;;;-6.53;97.68
54042;BME280;41156;51.508;5.406;2024-01-10T08:18:06;102820.97;;;-6.53;97.91
54042;BME280;41156;51.508;5.406;2024-01-10T08:21:07;102816.44;;;-6.49;97.88
54042;BME280;41156;51.508;5.406;2024-01-10T08:24:07;102824.28;;;-6.47;97.41
54042;BME280;41156;51.508;5.406;2024-01-10T08:27:08;102832.88;;;-6.42;97.96
54042;BME280;41156;51.508;5.406;2024-01-10T08:30:08;102831.03;;;-6.40;97.27
54042;BME280;41156;51.508;5.406;2024-01-10T08:33:10;102829.19;;;-6.38;97.31
54042;BME280;41156;51.508;5.406;2024-01-10T08:36:10;102828.97;;;-6.32;97.45
54042;BME280;41156;51.508;5.406;2024-01-10T08:39:11;102828.75;;;-6.26;96.59
54042;BME280;41156;51.508;5.406;2024-01-10T08:42:11;102823.44;;;-6.24;96.55
54042;BME280;41156;51.508;5.406;2024-01-10T08:45:11;102822.34;;;-6.19;96.85
54042;BME280;41156;51.508;5.406;2024-01-10T08:48:12;102822.13;;;-6.12;96.72
54042;BME280;41156;51.508;5.406;2024-01-10T08:51:13;102830.72;;;-6.07;96.50
54042;BME280;41156;51.508;5.406;2024-01-10T08:54:16;102825.13;;;-6.00;96.46
54042;BME280;41156;51.508;5.406;2024-01-10T08:57:19;102829.19;;;-5.91;95.64
54042;BME280;41156;51.508;5.406;2024-01-10T09:00:20;102828.06;;;-5.85;94.79
54042;BME280;41156;51.508;5.406;2024-01-10T09:03:20;102830.47;;;-5.79;94.48
54042;BME280;41156;51.508;5.406;2024-01-10T09:06:20;102830.22;;;-5.73;94.40
54042;BME280;41156;51.508;5.406;2024-01-10T09:09:23;102824.66;;;-5.65;94.41
54042;BME280;41156;51.508;5.406;2024-01-10T09:12:23;102826.28;;;-5.61;94.58
54042;BME280;41156;51.508;5.406;2024-01-10T09:15:24;102833.00;;;-5.54;93.84
54042;BME280;41156;51.508;5.406;2024-01-10T09:18:25;102828.28;;;-5.46;94.12
54042;BME280;41156;51.508;5.406;2024-01-10T09:21:25;102832.50;;;-5.42;93.27
54042;BME280;41156;51.508;5.406;2024-01-10T09:24:26;102832.19;;;-5.34;92.79
54042;BME280;41156;51.508;5.406;2024-01-10T09:27:27;102839.00;;;-5.28;92.51
54042;BME280;41156;51.508;5.406;2024-01-10T09:30:27;102839.47;;;-5.18;91.78
54042;BME280;41156;51.508;5.406;2024-01-10T09:33:27;102838.38;;;-5.13;93.02
54042;BME280;41156;51.508;5.406;2024-01-10T09:36:28;102835.41;;;-5.05;91.73
54042;BME280;41156;51.508;5.406;2024-01-10T09:39:28;102849.13;;;-4.97;91.42
54042;BME280;41156;51.508;5.406;2024-01-10T09:42:29;102849.84;;;-4.93;90.45
54042;BME280;41156;51.508;5.406;2024-01-10T09:45:34;102843.31;;;-4.85;90.75
54042;BME280;41156;51.508;5.406;2024-01-10T09:48:35;102849.06;;;-4.75;90.97
54042;BME280;41156;51.508;5.406;2024-01-10T09:51:35;102853.13;;;-4.66;90.29
54042;BME280;41156;51.508;5.406;2024-01-10T09:54:38;102851.84;;;-4.57;88.97
54042;BME280;41156;51.508;5.406;2024-01-10T09:57:40;102854.13;;;-4.50;89.40
54042;BME280;41156;51.508;5.406;2024-01-10T10:00:40;102850.19;;;-4.39;89.99
54042;BME280;41156;51.508;5.406;2024-01-10T10:03:41;102862.91;;;-4.29;89.04
54042;BME280;41156;51.508;5.406;2024-01-10T10:06:44;102851.94;;;-4.19;89.86
54042;BME280;41156;51.508;5.406;2024-01-10T10:09:45;102850.53;;;-4.07;89.18
54042;BME280;41156;51.508;5.406;2024-01-10T10:12:50;102844.88;;;-4.00;86.88
54042;BME280;41156;51.508;5.406;2024-01-10T10:16:00;102847.03;;;-3.89;87.25
54042;BME280;41156;51.508;5.406;2024-01-10T10:19:01;102843.03;;;-3.79;87.43
54042;BME280;41156;51.508;5.406;2024-01-10T10:22:08;102848.53;;;-3.64;83.90
54042;BME280;41156;51.508;5.406;2024-01-10T10:25:09;102846.66;;;-4.00;85.99
54042;BME280;41156;51.508;5.406;2024-01-10T10:28:10;102845.94;;;-4.04;88.46
54042;BME280;41156;51.508;5.406;2024-01-10T10:31:10;102843.88;;;-3.97;90.53
54042;BME280;41156;51.508;5.406;2024-01-10T10:34:11;102840.44;;;-3.80;89.09
54042;BME280;41156;51.508;5.406;2024-01-10T10:37:12;102846.28;;;-3.18;86.31
54042;BME280;41156;51.508;5.406;2024-01-10T10:40:12;102834.94;;;-3.03;85.41
54042;BME280;41156;51.508;5.406;2024-01-10T10:43:13;102830.06;;;-2.93;85.19
54042;BME280;41156;51.508;5.406;2024-01-10T10:46:15;102825.31;;;-2.86;82.50
54042;BME280;41156;51.508;5.406;2024-01-10T10:49:16;102823.97;;;-2.77;84.89
54042;BME280;41156;51.508;5.406;2024-01-10T10:52:18;102819.06;;;-2.68;80.38
54042;BME280;41156;51.508;5.406;2024-01-10T10:55:20;102827.47;;;-2.59;82.19
54042;BME280;41156;51.508;5.406;2024-01-10T10:58:23;102826.88;;;-2.49;80.30
54042;BME280;41156;51.508;5.406;2024-01-10T11:01:24;102815.75;;;-2.38;80.53
54042;BME280;41156;51.508;5.406;2024-01-10T11:04:27;102826.94;;;-2.33;84.19
54042;BME280;41156;51.508;5.406;2024-01-10T11:07:29;102815.06;;;-2.26;81.83
54042;BME280;41156;51.508;5.406;2024-01-10T11:10:34;102819.88;;;-2.16;78.28
54042;BME280;41156;51.508;5.406;2024-01-10T11:21:21;102816.72;;;-1.75;76.02
54042;BME280;41156;51.508;5.406;2024-01-10T11:24:26;102806.06;;;-1.58;82.66
54042;BME280;41156;51.508;5.406;2024-01-10T11:27:26;102798.22;;;-1.45;82.55
54042;BME280;41156;51.508;5.406;2024-01-10T11:30:33;102806.50;;;-1.35;75.69
54042;BME280;41156;51.508;5.406;2024-01-10T11:33:39;102794.97;;;-1.34;77.81
54042;BME280;41156;51.508;5.406;2024-01-10T11:37:10;102794.44;;;-1.25;74.41
54042;BME280;41156;51.508;5.406;2024-01-10T11:40:12;102794.06;;;-1.19;79.32
54042;BME280;41156;51.508;5.406;2024-01-10T11:43:12;102790.63;;;-1.05;79.99
54042;BME280;41156;51.508;5.406;2024-01-10T11:46:13;102791.19;;;-1.00;79.71
54042;BME280;41156;51.508;5.406;2024-01-10T11:49:18;102783.63;;;-0.91;76.50
54042;BME280;41156;51.508;5.406;2024-01-10T11:52:21;102787.72;;;-0.86;75.49
54042;BME280;41156;51.508;5.406;2024-01-10T11:55:47;102780.16;;;-0.78;74.26
54042;BME280;41156;51.508;5.406;2024-01-10T11:59:14;102779.78;;;-0.71;74.93
54042;BME280;41156;51.508;5.406;2024-01-10T12:02:17;102783.66;;;-0.63;76.17
54042;BME280;41156;51.508;5.406;2024-01-10T12:05:17;102788.50;;;-0.55;73.80
54042;BME280;41156;51.508;5.406;2024-01-10T12:08:17;102791.53;;;-0.47;78.27
54042;BME280;41156;51.508;5.406;2024-01-10T12:11:18;102779.88;;;-0.44;77.20
54042;BME280;41156;51.508;5.406;2024-01-10T12:14:18;102773.22;;;-0.37;78.15
54042;BME280;41156;51.508;5.406;2024-01-10T12:17:21;102770.28;;;-0.32;76.21
54042;BME280;41156;51.508;5.406;2024-01-10T12:20:22;102763.63;;;-0.25;77.15
54042;BME280;41156;51.508;5.406;2024-01-10T12:23:23;102764.19;;;-0.20;75.19
54042;BME280;41156;51.508;5.406;2024-01-10T12:26:23;102762.88;;;-0.13;75.49
54042;BME280;41156;51.508;5.406;2024-01-10T12:29:24;102757.47;;;-0.11;74.72
54042;BME280;41156;51.508;5.406;2024-01-10T12:32:25;102761.16;;;-0.14;76.64
54042;BME280;41156;51.508;5.406;2024-01-10T12:35:25;102758.50;;;-0.14;74.83
54042;BME280;41156;51.508;5.406;2024-01-10T12:38:27;102759.59;;;-0.04;76.33
54042;BME280;41156;51.508;5.406;2024-01-10T12:41:28;102765.44;;;0.16;74.71
54042;BME280;41156;51.508;5.406;2024-01-10T12:44:30;102763.25;;;0.23;74.53
54042;BME280;41156;51.508;5.406;2024-01-10T12:47:30;102759.22;;;0.30;72.75
54042;BME280;41156;51.508;5.406;2024-01-10T12:50:30;102763.31;;;0.35;72.54
54042;BME280;41156;51.508;5.406;2024-01-10T12:53:38;102762.56;;;0.33;74.24
54042;BME280;41156;51.508;5.406;2024-01-10T12:56:38;102762.25;;;0.38;72.40
54042;BME280;41156;51.508;5.406;2024-01-10T12:59:38;102754.91;;;0.42;72.75
54042;BME280;41156;51.508;5.406;2024-01-10T13:02:39;102762.59;;;0.46;66.64
54042;BME280;41156;51.508;5.406;2024-01-10T13:05:40;102769.06;;;0.42;71.17
54042;BME280;41156;51.508;5.406;2024-01-10T13:08:41;102763.13;;;0.39;71.50
54042;BME280;41156;51.508;5.406;2024-01-10T13:11:42;102765.00;;;0.36;67.33
54042;BME280;41156;51.508;5.406;2024-01-10T13:14:43;102759.13;;;0.31;69.56
54042;BME280;41156;51.508;5.406;2024-01-10T13:17:43;102759.78;;;0.35;71.71
54042;BME280;41156;51.508;5.406;2024-01-10T13:20:44;102758.03;;;0.21;72.43
54042;BME280;41156;51.508;5.406;2024-01-10T13:23:44;102752.72;;;0.21;70.42
54042;BME280;41156;51.508;5.406;2024-01-10T13:26:46;102757.25;;;0.33;71.30
54042;BME280;41156;51.508;5.406;2024-01-10T13:29:48;102748.50;;;0.31;70.19
54042;BME280;41156;51.508;5.406;2024-01-10T13:32:49;102749.56;;;0.29;70.87
54042;BME280;41156;51.508;5.406;2024-01-10T13:35:50;102754.00;;;0.28;69.53
54042;BME280;41156;51.508;5.406;2024-01-10T13:38:50;102756.13;;;0.23;67.25
54042;BME280;41156;51.508;5.406;2024-01-10T13:41:50;102752.91;;;0.18;68.80
54042;BME280;41156;51.508;5.406;2024-01-10T13:44:51;102756.72;;;0.14;68.93
54042;BME280;41156;51.508;5.406;2024-01-10T13:47:51;102763.97;;;0.12;68.42
54042;BME280;41156;51.508;5.406;2024-01-10T13:50:52;102763.09;;;0.11;70.73
54042;BME280;41156;51.508;5.406;2024-01-10T13:53:52;102756.94;;;0.11;71.01
54042;BME280;41156;51.508;5.406;2024-01-10T13:56:52;102754.06;;;0.14;70.62
54042;BME280;41156;51.508;5.406;2024-01-10T13:59:53;102764.81;;;0.12;68.59
54042;BME280;41156;51.508;5.406;2024-01-10T14:02:56;102771.84;;;0.13;71.04
54042;BME280;41156;51.508;5.406;2024-01-10T14:05:59;102769.47;;;0.09;71.07
54042;BME280;41156;51.508;5.406;2024-01-10T14:09:00;102768.91;;;0.04;70.76
54042;BME280;41156;51.508;5.406;2024-01-10T14:12:00;102763.13;;;-0.03;68.98
54042;BME280;41156;51.508;5.406;2024-01-10T14:15:01;102771.59;;;-0.11;69.04
54042;BME280;41156;51.508;5.406;2024-01-10T14:18:01;102766.56;;;-0.15;70.43
54042;BME280;41156;51.508;5.406;2024-01-10T14:21:01;102769.72;;;-0.23;69.35
54042;BME280;41156;51.508;5.406;2024-01-10T14:24:02;102776.25;;;-0.29;70.48
54042;BME280;41156;51.508;5.406;2024-01-10T14:27:02;102769.53;;;-0.34;71.34
54042;BME280;41156;51.508;5.406;2024-01-10T14:30:03;102769.81;;;-0.39;69.33
54042;BME280;41156;51.508;5.406;2024-01-10T14:33:03;102771.06;;;-0.45;69.52
54042;BME280;41156;51.508;5.406;2024-01-10T14:36:04;102763.28;;;-0.48;70.36
54042;BME280;41156;51.508;5.406;2024-01-10T14:39:04;102763.47;;;-0.51;70.36
54042;BME280;41156;51.508;5.406;2024-01-10T14:42:07;102759.09;;;-0.52;71.13
54042;BME280;41156;51.508;5.406;2024-01-10T14:45:09;102770.59;;;-0.51;70.73
54042;BME280;41156;51.508;5.406;2024-01-10T14:48:10;102767.16;;;-0.53;68.80
54042;BME280;41156;51.508;5.406;2024-01-10T14:51:11;102768.13;;;-0.54;70.73
54042;BME280;41156;51.508;5.406;2024-01-10T14:54:11;102755.03;;;-0.58;70.17
54042;BME280;41156;51.508;5.406;2024-01-10T14:57:11;102760.53;;;-0.61;69.74
54042;BME280;41156;51.508;5.406;2024-01-10T15:00:12;102769.56;;;-0.63;70.72
54042;BME280;41156;51.508;5.406;2024-01-10T15:03:13;102763.44;;;-0.65;70.82
54042;BME280;41156;51.508;5.406;2024-01-10T15:22:26;102784.22;;;-0.86;70.90
54042;BME280;41156;51.508;5.406;2024-01-10T15:25:27;102781.75;;;-0.89;70.23
54042;BME280;41156;51.508;5.406;2024-01-10T15:28:27;102776.69;;;-0.94;70.49
54042;BME280;41156;51.508;5.406;2024-01-10T15:31:28;102773.47;;;-0.99;71.01
54042;BME280;41156;51.508;5.406;2024-01-10T15:34:29;102778.03;;;-1.01;70.95
54042;BME280;41156;51.508;5.406;2024-01-10T15:37:30;102786.34;;;-1.07;70.68
54042;BME280;41156;51.508;5.406;2024-01-10T15:40:30;102794.47;;;-1.10;71.52
54042;BME280;41156;51.508;5.406;2024-01-10T15:43:30;102791.25;;;-1.16;71.59
54042;BME280;41156;51.508;5.406;2024-01-10T15:46:31;102787.91;;;-1.19;71.04
54042;BME280;41156;51.508;5.406;2024-01-10T15:49:31;102788.09;;;-1.22;71.82
54042;BME280;41156;51.508;5.406;2024-01-10T15:52:31;102798.44;;;-1.18;72.01
54042;BME280;41156;51.508;5.406;2024-01-10T15:55:31;102792.78;;;-1.12;71.00
54042;BME280;41156;51.508;5.406;2024-01-10T15:58:33;102792.19;;;-1.17;71.09
54042;BME280;41156;51.508;5.406;2024-01-10T16:01:34;102787.09;;;-1.36;71.35
54042;BME280;41156;51.508;5.406;2024-01-10T16:04:34;102793.63;;;-1.41;72.59
54042;BME280;41156;51.508;5.406;2024-01-10T16:07:35;102795.56;;;-1.45;71.85
54042;BME280;41156;51.508;5.406;2024-01-10T16:10:35;102798.50;;;-1.50;72.03